Flight Track Log - Related Links

Times and Time Zones

All times are in EST time to prevent confusion due to time zone crossing. See the EJM826 flight status page for this flight to view local times or setup timezone preferences in your user account.

Time Position Orientation Groundspeed Altitude Reporting Facility
EST Latitude Longitude Course Direction KTS MPH feet Rate Location/Type
Wed 08:05:19 AM 29.6311 -95.2656 142° Southeast 145 167 800  Level Houston Center
Wed 08:06:50 AM 29.5694 -95.2106 142° Southeast 227 261 4,000 2,162 Climbing Houston Center
Wed 08:07:10 AM 29.5547 -95.1942 136° Southeast 217 250 4,800 2,418 Climbing Houston Center
Wed 08:07:57 AM 29.5539 -95.1356 91° East 243 280 6,700 2,066 Climbing Houston Center
Wed 08:08:11 AM 29.5558 -95.1231 80° East 243 280 6,900 1,579 Climbing Houston Center
Wed 08:09:13 AM 29.5742 -95.0403 76° East 267 307 8,700 1,610 Climbing Houston Center
Wed 08:10:14 AM 29.5956 -94.9425 76° East 304 350 10,200 1,426 Climbing Houston Center
Wed 08:11:15 AM 29.6203 -94.8353 75° East 341 392 11,600 1,561 Climbing Houston Center
Wed 08:12:17 AM 29.6472 -94.6986 77° East 362 417 13,400 1,561 Climbing Houston Center
Wed 08:13:18 AM 29.6722 -94.5817 76° East 372 428 14,800 1,623 Climbing Houston Center
Wed 08:14:19 AM 29.6939 -94.4622 78° East 380 437 16,700 1,415 Climbing Houston Center
Wed 08:15:21 AM 29.7147 -94.3428 79° East 382 440 17,700 1,024 Climbing Houston Center
Wed 08:16:22 AM 29.7356 -94.2194 79° East 388 447 18,800 1,082 Climbing Houston Center
Wed 08:17:23 AM 29.7569 -94.0947 79° East 394 453 19,900 1,024 Climbing Houston Center
Wed 08:18:25 AM 29.7786 -93.9681 79° East 399 459 20,900 976 Climbing Houston Center
Wed 08:19:26 AM 29.8003 -93.8392 79° East 405 466 21,900 1,024 Climbing Houston Center
Wed 08:20:28 AM 29.8247 -93.6808 80° East 413 475 23,000 927 Climbing Houston Center
Wed 08:21:29 AM 29.8467 -93.5458 79° East 424 488 23,800 732 Climbing Houston Center
Wed 08:22:31 AM 29.8686 -93.4106 79° East 431 496 24,500 683 Climbing Houston Center
Wed 08:23:32 AM 29.8908 -93.2744 79° East 435 501 25,200 732 Climbing Houston Center
Wed 08:24:34 AM 29.9133 -93.1367 79° East 440 506 26,000 780 Climbing Houston Center
Wed 08:25:35 AM 29.9364 -92.9978 79° East 444 511 26,800 732 Climbing Houston Center
Wed 08:26:37 AM 29.9622 -92.8308 80° East 443 510 27,500 683 Climbing Houston Center
Wed 08:27:38 AM 29.9853 -92.6889 79° East 451 519 28,200 634 Climbing Houston Center
Wed 08:28:40 AM 30.0072 -92.5453 80° East 455 524 28,800 919 Climbing Houston Center
Wed 08:29:42 AM 30.0300 -92.4039 79° East 453 521 30,100 976 Climbing Houston Center
Wed 08:30:43 AM 30.0514 -92.2633 80° East 447 514 30,800 927 Climbing Houston Center
Wed 08:31:45 AM 30.0725 -92.1219 80° East 449 517 32,000 1,073 Climbing Houston Center
Wed 08:32:46 AM 30.0947 -91.9808 80° East 449 517 33,000 488 Climbing Houston Center
Wed 08:33:48 AM 30.1194 -91.8097 80° East 452 520 33,000  Level Houston Center
Wed 08:34:49 AM 30.1394 -91.6822 80° East 463 533 33,000  Level Houston Center
Wed 08:35:51 AM 30.1608 -91.5350 80° East 465 535 33,000  Level Houston Center
Wed 08:36:53 AM 30.1875 -91.3556 80° East 473 544 33,000  Level Houston Center
Wed 08:37:54 AM 30.2100 -91.2047 80° East 476 548 33,000  Level Houston Center
Wed 08:38:56 AM 30.2325 -91.0547 80° East 475 547 33,000  Level Houston Center
Wed 08:39:57 AM 30.2528 -90.9036 81° East 477 549 33,000  Level Houston Center
Wed 08:40:59 AM 30.2750 -90.7531 80° East 477 549 33,000  Level Houston Center
Wed 08:42:00 AM 30.2958 -90.6028 81° East 476 548 33,000 -98 Level Houston Center
Wed 08:43:02 AM 30.3181 -90.4519 80° East 475 547 32,800 -726 Descending Houston Center
Wed 08:44:04 AM 30.3428 -90.2717 81° East 474 545 31,500 -1,463 Descending Houston Center
Wed 08:45:05 AM 30.3636 -90.1192 81° East 478 550 29,800 -1,854 Descending Houston Center
Wed 08:46:07 AM 30.3850 -89.9656 81° East 480 552 27,700 -1,902 Descending Houston Center
Wed 08:47:08 AM 30.4031 -89.8303 81° East 483 556 25,900 -2,146 Descending Houston Center
Wed 08:48:10 AM 30.4283 -89.6464 81° East 487 560 23,300 -2,293 Descending Houston Center
Wed 08:49:11 AM 30.4481 -89.4939 81° East 480 552 21,200 -2,049 Descending Houston Center
Wed 08:50:13 AM 30.4675 -89.3444 81° East 473 544 19,100 -1,935 Descending Houston Center
Wed 08:51:15 AM 30.4867 -89.1961 81° East 469 540 17,200 -1,951 Descending Houston Center
Wed 08:52:16 AM 30.5036 -89.0511 82° East 459 528 15,100 -2,049 Descending Houston Center
Wed 08:53:18 AM 30.5203 -88.9144 82° East 444 511 13,000 -2,098 Descending Houston Center
Wed 08:54:19 AM 30.5639 -88.7931 67° East 423 487 10,800 -1,805 Descending Houston Center
Wed 08:55:21 AM 30.6122 -88.6683 66° East 361 415 9,300 -1,887 Descending Houston Center
Wed 08:56:23 AM 30.6422 -88.5781 69° East 314 361 6,900 -2,293 Descending Houston Center
Wed 08:57:24 AM 30.6522 -88.4786 83° East 315 362 4,600 -1,902 Descending Houston Center
Wed 08:58:26 AM 30.6622 -88.3844 83° East 305 351 3,000 -774 Descending Houston Center
Wed 08:59:28 AM 30.6708 -88.3033 83° East 278 320 3,000 -49 Level Houston Center
Wed 09:00:29 AM 30.6978 -88.2464 61° Northeast 235 270 2,900 -244 Descending Houston Center
Wed 09:01:31 AM 30.7264 -88.1822 63° Northeast 206 237 2,500 -585 Descending Houston Center
Wed 09:02:32 AM 30.6950 -88.1403 131° Southeast 187 215 1,700 -878 Descending Houston Center
Wed 09:03:34 AM 30.6603 -88.1061 140° Southeast 175 201 700 -774 Descending Houston Center
Wed 09:04:36 AM 30.6342 -88.0797 139° Southeast 145 167 100 -581 Descending Houston Center
Wed 09:06:00 AM 30.6268 -88.0681 77° East  Level Estimated
Wed 09:13:00 AM 30.6268 -88.0681 77° East  Level Estimated

Login

Don't have an account? Register now (free) for customized features, flight alerts, and more!